createdAt,value
2022-10-19T00:02:09.122Z,66.77
2022-10-19T00:04:35.544Z,68.12
2022-10-19T00:07:01.886Z,68.12
2022-10-19T00:09:29.136Z,66.70
2022-10-19T00:11:56.217Z,66.75
2022-10-19T00:14:23.732Z,66.31
2022-10-19T00:16:52.269Z,66.53
2022-10-19T00:19:22.073Z,67.87
2022-10-19T00:24:20.507Z,67.19
2022-10-19T00:26:47.172Z,65.97
2022-10-19T00:29:14.554Z,66.96
2022-10-19T00:31:41.777Z,66.29
2022-10-19T00:34:08.257Z,66.81
2022-10-19T00:36:38.088Z,66.14
2022-10-19T00:39:06.297Z,65.88
2022-10-19T00:41:35.543Z,66.45
2022-10-19T00:44:03.645Z,66.98
2022-10-19T00:46:32.630Z,65.89
2022-10-19T00:49:10.798Z,67.41
2022-10-19T00:51:40.645Z,66.24
2022-10-19T00:54:09.027Z,66.59
2022-10-19T00:56:38.126Z,66.36
2022-10-19T00:59:06.179Z,66.64
2022-10-19T01:01:34.108Z,66.97
2022-10-19T01:04:01.501Z,66.94
2022-10-19T01:06:28.529Z,65.70
2022-10-19T01:08:55.026Z,66.73
2022-10-19T01:11:43.088Z,65.35
2022-10-19T01:14:21.718Z,66.56
2022-10-19T01:16:58.825Z,67.06
2022-10-19T01:19:38.185Z,65.18
2022-10-19T01:22:36.430Z,65.68
2022-10-19T01:25:23.001Z,66.72
2022-10-19T01:28:11.170Z,66.31
2022-10-19T01:30:57.426Z,68.22
2022-10-19T01:33:29.433Z,67.37
2022-10-19T01:36:05.900Z,66.65
2022-10-19T01:38:50.310Z,67.34
2022-10-19T01:41:38.020Z,68.06
2022-10-19T01:44:13.916Z,68.13
2022-10-19T01:46:43.641Z,68.02
2022-10-19T01:49:28.298Z,66.77
2022-10-19T01:51:59.844Z,66.69
2022-10-19T01:54:30.845Z,67.45
2022-10-19T01:56:59.949Z,66.74
2022-10-19T01:59:26.433Z,66.65
2022-10-19T02:01:54.662Z,67.01
2022-10-19T02:04:23.589Z,67.40
2022-10-19T02:06:52.876Z,68.26
2022-10-19T02:09:20.149Z,68.41
2022-10-19T02:11:56.923Z,68.72
2022-10-19T02:14:29.301Z,67.70
2022-10-19T02:17:14.665Z,69.14
2022-10-19T02:19:41.565Z,69.37
2022-10-19T02:22:08.202Z,68.26
2022-10-19T02:24:34.595Z,69.27
2022-10-19T02:27:04.746Z,68.86
2022-10-19T02:29:33.285Z,69.76
2022-10-19T02:32:00.948Z,68.74
2022-10-19T02:34:27.754Z,69.50
2022-10-19T02:36:55.175Z,69.09
2022-10-19T02:39:22.245Z,69.79
2022-10-19T02:42:12.614Z,68.83
2022-10-19T02:44:57.326Z,70.02
2022-10-19T02:47:47.807Z,68.46
2022-10-19T02:50:14.428Z,69.27
2022-10-19T02:52:41.328Z,68.58
2022-10-19T02:55:08.785Z,68.79
2022-10-19T02:57:36.043Z,69.07
2022-10-19T03:00:05.214Z,68.57
2022-10-19T03:02:31.621Z,69.54
2022-10-19T03:04:58.062Z,68.73
2022-10-19T03:07:25.150Z,69.86
2022-10-19T03:09:51.522Z,69.43
2022-10-19T03:12:18.490Z,68.76
2022-10-19T03:14:44.822Z,69.15
2022-10-19T03:17:11.410Z,69.53
2022-10-19T03:19:38.000Z,69.07
2022-10-19T03:22:04.645Z,69.19
2022-10-19T03:24:32.035Z,68.73
2022-10-19T03:26:58.414Z,69.07
2022-10-19T03:29:24.953Z,68.78
2022-10-19T03:31:51.273Z,69.18
2022-10-19T03:34:17.639Z,68.91
2022-10-19T03:36:44.006Z,68.90
2022-10-19T03:39:13.655Z,68.79
2022-10-19T03:41:40.806Z,69.55
2022-10-19T03:44:08.203Z,69.20
2022-10-19T03:46:35.428Z,68.75
2022-10-19T03:49:02.285Z,69.11
2022-10-19T03:51:30.159Z,69.49
2022-10-19T03:53:59.989Z,69.04
2022-10-19T03:56:28.494Z,69.57
2022-10-19T03:58:56.480Z,69.51
2022-10-19T04:01:25.976Z,70.27
2022-10-19T04:04:04.021Z,68.99
2022-10-19T04:06:34.519Z,68.74
2022-10-19T04:09:01.659Z,68.60
2022-10-19T04:11:29.709Z,69.46
2022-10-19T04:13:57.610Z,69.10
2022-10-19T04:16:25.798Z,69.62
2022-10-19T04:18:53.198Z,69.86
2022-10-19T04:21:25.678Z,70.34
2022-10-19T04:23:54.497Z,70.08
2022-10-19T04:26:20.893Z,70.60
2022-10-19T04:28:47.382Z,71.25
2022-10-19T04:31:14.053Z,70.85
2022-10-19T04:33:40.940Z,71.58
2022-10-19T04:36:09.337Z,71.97
2022-10-19T04:38:36.597Z,71.73
2022-10-19T04:41:09.998Z,72.77
2022-10-19T04:43:36.949Z,72.87
2022-10-19T04:46:22.952Z,73.56
2022-10-19T04:48:49.541Z,72.71
2022-10-19T04:51:16.591Z,72.89
2022-10-19T04:53:43.526Z,73.35
2022-10-19T04:56:14.075Z,73.40
2022-10-19T04:58:40.695Z,73.37
2022-10-19T05:01:17.882Z,73.11
2022-10-19T05:03:44.947Z,73.45
2022-10-19T05:06:12.791Z,72.98
2022-10-19T05:08:39.269Z,73.82
2022-10-19T05:11:14.336Z,72.56
2022-10-19T05:13:41.257Z,72.75
2022-10-19T05:16:10.678Z,73.01
2022-10-19T05:18:37.015Z,73.60
2022-10-19T05:21:06.759Z,73.82
2022-10-19T05:26:06.126Z,72.76
2022-10-19T05:28:33.281Z,73.68
2022-10-19T05:31:14.466Z,73.89
2022-10-19T05:33:41.768Z,74.25
2022-10-19T05:36:12.224Z,74.01
2022-10-19T05:38:38.565Z,73.95
2022-10-19T05:41:05.029Z,73.62
2022-10-19T05:43:31.326Z,74.96
2022-10-19T05:45:57.649Z,74.22
2022-10-19T05:48:24.304Z,74.36
2022-10-19T05:50:55.172Z,75.49
2022-10-19T05:53:21.608Z,74.50
2022-10-19T05:55:47.960Z,74.25
2022-10-19T05:58:14.361Z,74.15
2022-10-19T06:00:40.740Z,73.87
2022-10-19T06:03:07.042Z,73.52
2022-10-19T06:05:36.389Z,73.28
2022-10-19T06:08:02.834Z,74.38
2022-10-19T06:10:29.173Z,73.68
2022-10-19T06:12:55.486Z,74.05
2022-10-19T06:15:21.829Z,74.37
2022-10-19T06:17:48.199Z,73.85
2022-10-19T06:20:14.672Z,74.59
2022-10-19T06:22:42.346Z,74.85
2022-10-19T06:25:09.080Z,74.11
2022-10-19T06:27:35.782Z,73.85
2022-10-19T06:30:02.904Z,74.42
2022-10-19T06:32:29.295Z,73.81
2022-10-19T06:34:56.657Z,73.79
2022-10-19T06:37:23.209Z,72.81
2022-10-19T06:39:49.617Z,72.84
2022-10-19T06:42:15.971Z,72.38
2022-10-19T06:44:42.291Z,72.12
2022-10-19T06:47:08.650Z,71.94
2022-10-19T06:49:35.818Z,72.24
2022-10-19T06:52:02.703Z,72.72
2022-10-19T06:54:29.437Z,72.04
2022-10-19T06:56:55.871Z,71.73
2022-10-19T06:59:22.303Z,71.93
2022-10-19T07:01:48.638Z,71.36
2022-10-19T07:04:15.042Z,71.87
2022-10-19T07:06:41.439Z,70.91
2022-10-19T07:09:07.875Z,70.88
2022-10-19T07:11:34.462Z,71.10
2022-10-19T07:14:00.866Z,70.17
2022-10-19T07:16:27.197Z,70.32
2022-10-19T07:18:53.934Z,70.66
2022-10-19T07:21:22.311Z,70.44
2022-10-19T07:23:48.878Z,70.00
2022-10-19T07:26:18.048Z,69.85
2022-10-19T07:28:46.990Z,69.65
2022-10-19T07:31:20.464Z,70.76
2022-10-19T07:33:47.757Z,71.17
2022-10-19T07:36:14.206Z,70.13
2022-10-19T07:38:41.341Z,71.06
2022-10-19T07:41:11.038Z,71.15
2022-10-19T07:43:37.400Z,70.72
2022-10-19T07:46:07.089Z,69.58
2022-10-19T07:48:34.702Z,69.74
2022-10-19T07:51:03.121Z,69.68
2022-10-19T07:53:29.564Z,69.74
2022-10-19T07:55:56.163Z,70.59
2022-10-19T07:58:22.550Z,70.40
2022-10-19T08:00:48.978Z,70.25
2022-10-19T08:06:03.413Z,69.61
2022-10-19T08:08:30.315Z,70.27
2022-10-19T08:10:57.273Z,69.88
2022-10-19T08:13:23.902Z,70.19
2022-10-19T08:15:50.329Z,69.98
2022-10-19T08:18:18.324Z,70.05
2022-10-19T08:20:44.983Z,70.38
2022-10-19T08:23:11.302Z,69.80
2022-10-19T08:25:37.688Z,69.52
2022-10-19T08:28:04.144Z,71.41
2022-10-19T08:30:30.455Z,70.25
2022-10-19T08:32:56.786Z,70.70
2022-10-19T08:35:23.209Z,70.33
2022-10-19T08:37:49.932Z,70.57
2022-10-19T08:40:24.019Z,70.09
2022-10-19T08:43:17.813Z,70.91
2022-10-19T08:46:17.143Z,70.98
2022-10-19T08:48:43.640Z,70.91
2022-10-19T08:51:13.014Z,70.09
2022-10-19T08:53:45.442Z,70.67
2022-10-19T08:56:51.549Z,69.85
2022-10-19T08:59:40.663Z,70.11
2022-10-19T09:02:13.673Z,69.93
2022-10-19T09:04:42.748Z,71.27
2022-10-19T09:07:24.329Z,69.92
2022-10-19T09:10:14.681Z,69.67
2022-10-19T09:12:59.198Z,69.54
2022-10-19T09:15:41.478Z,68.33
2022-10-19T09:18:13.818Z,69.02
2022-10-19T09:20:44.452Z,68.98
2022-10-19T09:23:34.016Z,68.35
2022-10-19T09:26:00.389Z,68.02
2022-10-19T09:28:43.726Z,67.34
2022-10-19T09:31:15.613Z,67.18
2022-10-19T09:33:45.209Z,66.17
2022-10-19T09:36:22.279Z,65.78
2022-10-19T09:38:50.142Z,65.38
2022-10-19T09:41:22.448Z,64.53
2022-10-19T09:43:53.823Z,63.32
2022-10-19T09:46:27.767Z,61.99
2022-10-19T09:48:54.150Z,60.80
2022-10-19T09:51:20.986Z,62.36
2022-10-19T09:53:51.836Z,61.74
2022-10-19T09:56:21.228Z,62.26
2022-10-19T09:58:50.208Z,62.08
2022-10-19T10:01:43.043Z,62.50
2022-10-19T10:04:14.794Z,63.86
2022-10-19T10:06:43.470Z,62.19
2022-10-19T10:09:23.676Z,63.64
2022-10-19T10:11:51.337Z,63.16
2022-10-19T10:14:25.709Z,62.28
2022-10-19T10:17:04.100Z,61.52
2022-10-19T10:19:32.933Z,60.12
2022-10-19T10:22:00.108Z,59.57
2022-10-19T10:24:29.113Z,58.93
2022-10-19T10:26:58.364Z,60.26
2022-10-19T10:29:29.830Z,59.95
2022-10-19T10:32:19.964Z,60.53
2022-10-19T10:35:01.075Z,59.75
2022-10-19T10:37:29.998Z,59.22
2022-10-19T10:40:00.524Z,59.34
2022-10-19T10:42:36.285Z,58.15
2022-10-19T10:45:02.890Z,59.14
2022-10-19T10:47:30.007Z,58.32
2022-10-19T10:50:21.871Z,57.61
2022-10-19T10:53:02.715Z,58.26
2022-10-19T10:55:30.920Z,59.31
2022-10-19T10:58:15.787Z,59.58
2022-10-19T11:00:42.947Z,61.45
2022-10-19T11:03:26.079Z,60.45
2022-10-19T11:06:00.364Z,60.60
2022-10-19T11:08:59.779Z,60.88
2022-10-19T11:11:39.370Z,60.80
2022-10-19T11:14:17.609Z,60.25
2022-10-19T11:16:47.737Z,59.90
2022-10-19T11:19:18.168Z,60.57
2022-10-19T11:21:55.948Z,58.72
2022-10-19T11:24:26.396Z,59.46
2022-10-19T11:27:21.788Z,61.19
2022-10-19T11:30:18.360Z,60.66
2022-10-19T11:32:56.864Z,58.69
2022-10-19T11:35:54.462Z,57.85
2022-10-19T11:38:30.061Z,57.11
2022-10-19T11:41:23.403Z,57.25
2022-10-19T11:44:17.699Z,56.97
2022-10-19T11:46:59.055Z,58.56
2022-10-19T11:49:40.082Z,58.96
2022-10-19T11:52:23.668Z,59.20
2022-10-19T11:55:19.382Z,59.87
2022-10-19T11:57:48.750Z,59.62
2022-10-19T12:00:37.580Z,58.82
2022-10-19T12:03:49.668Z,58.48
2022-10-19T12:06:31.620Z,57.54
2022-10-19T12:09:09.928Z,57.55
2022-10-19T12:11:58.030Z,58.39
2022-10-19T12:14:30.264Z,58.33
2022-10-19T12:17:02.058Z,58.00
2022-10-19T12:19:40.653Z,57.88
2022-10-19T12:22:15.242Z,59.32
2022-10-19T12:24:41.637Z,58.13
2022-10-19T12:27:13.629Z,59.78
2022-10-19T12:29:44.259Z,59.66
2022-10-19T12:32:15.092Z,58.22
2022-10-19T12:34:48.888Z,59.53
2022-10-19T12:37:47.218Z,59.81
2022-10-19T12:40:25.309Z,59.89
2022-10-19T12:43:13.198Z,60.51
2022-10-19T12:45:45.113Z,59.80
2022-10-19T12:48:15.889Z,59.62
2022-10-19T12:50:48.342Z,59.47
2022-10-19T12:53:38.546Z,57.97
2022-10-19T12:56:26.788Z,57.19
2022-10-19T12:58:59.730Z,58.02
2022-10-19T13:01:41.095Z,57.43
2022-10-19T13:04:15.670Z,57.93
2022-10-19T13:06:51.174Z,56.68
2022-10-19T13:09:36.289Z,56.56
2022-10-19T13:12:19.346Z,57.20
2022-10-19T13:14:48.054Z,56.15
2022-10-19T13:17:50.978Z,57.15
2022-10-19T13:20:17.285Z,55.01
2022-10-19T13:22:50.741Z,55.47
2022-10-19T13:25:17.176Z,56.42
2022-10-19T13:27:44.886Z,56.98
2022-10-19T13:30:39.257Z,57.32
2022-10-19T13:33:31.248Z,56.01
2022-10-19T13:36:00.446Z,56.33
2022-10-19T13:38:34.015Z,53.61
2022-10-19T13:41:09.098Z,55.18
2022-10-19T13:43:50.258Z,54.77
2022-10-19T13:46:21.286Z,54.14
2022-10-19T13:49:17.750Z,53.54
2022-10-19T13:52:08.326Z,54.53
2022-10-19T13:54:43.855Z,54.27
2022-10-19T13:57:16.260Z,54.05
2022-10-19T13:59:45.474Z,55.29
2022-10-19T14:02:37.396Z,54.09
2022-10-19T14:05:12.231Z,55.65
2022-10-19T14:07:55.147Z,54.01
2022-10-19T14:10:28.283Z,53.84
2022-10-19T14:13:00.662Z,54.07
2022-10-19T14:15:30.798Z,55.85
2022-10-19T14:17:59.551Z,54.25
2022-10-19T14:20:37.616Z,54.66
2022-10-19T14:23:28.703Z,56.06
2022-10-19T14:26:03.322Z,57.05
2022-10-19T14:28:30.783Z,57.10
2022-10-19T14:31:01.132Z,58.27
2022-10-19T14:33:34.260Z,58.40
2022-10-19T14:36:01.420Z,57.42
2022-10-19T14:38:39.875Z,58.67
2022-10-19T14:41:19.015Z,58.73
2022-10-19T14:43:45.539Z,57.21
2022-10-19T14:46:16.196Z,58.68
2022-10-19T14:48:48.639Z,58.75
2022-10-19T14:51:27.101Z,59.19
2022-10-19T14:54:05.228Z,57.58
2022-10-19T14:56:42.787Z,57.38
2022-10-19T14:59:18.350Z,58.39
2022-10-19T15:01:50.432Z,58.54
2022-10-19T15:04:28.233Z,59.05
2022-10-19T15:06:55.770Z,58.53
2022-10-19T15:09:48.651Z,58.64
2022-10-19T15:12:21.364Z,59.17
2022-10-19T15:14:48.567Z,58.55
2022-10-19T15:17:28.166Z,58.54
2022-10-19T15:19:56.077Z,59.04
2022-10-19T15:22:24.076Z,59.26
2022-10-19T15:24:55.643Z,59.82
2022-10-19T15:27:29.064Z,60.59
2022-10-19T15:29:57.005Z,60.83
2022-10-19T15:32:45.176Z,60.24
2022-10-19T15:35:19.769Z,61.26
2022-10-19T15:37:49.003Z,59.46
2022-10-19T15:40:36.099Z,59.68
2022-10-19T15:43:34.669Z,60.46
2022-10-19T15:46:20.973Z,59.51
2022-10-19T15:48:58.296Z,61.22
2022-10-19T15:51:24.605Z,61.52
2022-10-19T15:54:02.644Z,61.94
2022-10-19T15:56:31.093Z,61.10
2022-10-19T15:58:59.456Z,61.55
2022-10-19T16:01:28.259Z,63.33
2022-10-19T16:03:55.278Z,63.15
2022-10-19T16:06:24.488Z,62.67
2022-10-19T16:08:51.279Z,63.65
2022-10-19T16:11:24.277Z,64.24
2022-10-19T16:13:51.010Z,64.76
2022-10-19T16:16:29.694Z,64.87
2022-10-19T16:18:56.844Z,64.84
2022-10-19T16:21:32.579Z,65.47
2022-10-19T16:23:59.490Z,65.46
2022-10-19T16:26:26.440Z,65.51
2022-10-19T16:28:54.273Z,65.76
2022-10-19T16:31:21.585Z,65.56
2022-10-19T16:33:47.963Z,65.32
2022-10-19T16:36:14.872Z,66.22
2022-10-19T16:38:41.250Z,66.04
2022-10-19T16:41:10.160Z,66.42
2022-10-19T16:43:37.155Z,66.75
2022-10-19T16:46:04.655Z,66.25
2022-10-19T16:48:31.819Z,66.48
2022-10-19T16:51:07.068Z,66.13
2022-10-19T16:53:34.262Z,67.24
2022-10-19T16:56:05.711Z,67.41
2022-10-19T16:58:32.100Z,67.36
2022-10-19T17:01:01.392Z,67.85
2022-10-19T17:03:30.872Z,67.35
2022-10-19T17:05:57.191Z,67.12
2022-10-19T17:08:36.586Z,67.69
2022-10-19T17:11:18.767Z,67.70
2022-10-19T17:13:47.811Z,69.30
2022-10-19T17:16:15.009Z,68.32
2022-10-19T17:18:42.965Z,67.57
2022-10-19T17:21:13.091Z,67.56
2022-10-19T17:23:40.231Z,67.54
2022-10-19T17:26:08.080Z,67.54
2022-10-19T17:28:35.763Z,67.22
2022-10-19T17:31:07.556Z,67.65
2022-10-19T17:33:35.093Z,66.59
2022-10-19T17:36:10.562Z,67.95
2022-10-19T17:38:37.888Z,66.86
2022-10-19T17:41:07.655Z,67.51
2022-10-19T17:43:35.203Z,68.12
2022-10-19T17:46:02.984Z,67.40
2022-10-19T17:48:29.860Z,67.31
2022-10-19T17:50:58.044Z,67.50
2022-10-19T17:53:24.556Z,68.49
2022-10-19T17:55:50.919Z,67.09
2022-10-19T17:58:17.483Z,68.49
2022-10-19T18:00:43.998Z,68.16
2022-10-19T18:03:10.522Z,67.18
2022-10-19T18:05:37.087Z,67.76
2022-10-19T18:08:03.413Z,68.08
2022-10-19T18:10:29.754Z,68.26
2022-10-19T18:12:56.152Z,67.75
2022-10-19T18:15:22.511Z,67.82
2022-10-19T18:17:48.851Z,67.69
2022-10-19T18:20:15.329Z,68.88
2022-10-19T18:25:09.357Z,68.51
2022-10-19T18:27:36.073Z,67.96
2022-10-19T18:30:02.894Z,66.92
2022-10-19T18:32:29.338Z,68.86
2022-10-19T18:34:55.745Z,67.08
2022-10-19T18:37:22.152Z,68.51
2022-10-19T18:39:48.466Z,68.44
2022-10-19T18:42:14.884Z,67.19
2022-10-19T18:44:41.249Z,67.56
2022-10-19T18:47:07.589Z,66.34
2022-10-19T18:49:34.289Z,67.73
2022-10-19T18:52:00.858Z,67.62
2022-10-19T18:54:27.918Z,67.98
2022-10-19T18:56:55.193Z,66.27
2022-10-19T18:59:21.669Z,65.97
2022-10-19T19:01:48.071Z,66.75
2022-10-19T19:04:14.648Z,67.58
2022-10-19T19:06:41.957Z,67.45
2022-10-19T19:09:10.837Z,66.65
2022-10-19T19:11:40.675Z,66.25
2022-10-19T19:14:12.784Z,68.19
2022-10-19T19:16:40.886Z,67.24
2022-10-19T19:19:08.525Z,70.19
2022-10-19T19:21:36.628Z,71.23
2022-10-19T19:24:05.753Z,71.00
2022-10-19T19:26:36.816Z,71.25
2022-10-19T19:29:05.169Z,71.70
2022-10-19T19:31:31.611Z,72.98
2022-10-19T19:34:01.035Z,71.43
2022-10-19T19:36:28.217Z,70.60
2022-10-19T19:38:56.460Z,71.31
2022-10-19T19:41:22.883Z,71.33
2022-10-19T19:43:49.246Z,69.83
2022-10-19T19:46:18.142Z,69.58
2022-10-19T19:48:47.173Z,70.68
2022-10-19T19:51:19.735Z,68.39
2022-10-19T19:53:47.339Z,68.33
2022-10-19T19:56:16.046Z,68.47
2022-10-19T19:58:43.114Z,67.18
2022-10-19T20:01:20.471Z,67.62
2022-10-19T20:03:47.673Z,67.98
2022-10-19T20:06:17.265Z,66.70
2022-10-19T20:08:45.387Z,66.53
2022-10-19T20:11:14.371Z,67.87
2022-10-19T20:13:40.741Z,67.44
2022-10-19T20:16:09.692Z,67.04
2022-10-19T20:18:36.145Z,67.48
2022-10-19T20:21:04.675Z,66.26
2022-10-19T20:23:31.830Z,66.42
2022-10-19T20:25:58.241Z,66.11
2022-10-19T20:28:26.153Z,65.88
2022-10-19T20:31:03.642Z,66.94
2022-10-19T20:33:31.788Z,66.42
2022-10-19T20:36:08.112Z,66.38
2022-10-19T20:38:35.834Z,67.36
2022-10-19T20:41:08.188Z,67.47
2022-10-19T20:43:36.283Z,67.44
2022-10-19T20:46:07.937Z,66.74
2022-10-19T20:48:34.335Z,67.71
2022-10-19T20:51:11.635Z,67.31
2022-10-19T20:53:38.595Z,66.03
2022-10-19T20:56:10.115Z,66.34
2022-10-19T20:58:42.615Z,66.45
2022-10-19T21:01:19.224Z,66.64
2022-10-19T21:04:00.701Z,67.02
2022-10-19T21:06:29.657Z,68.36
2022-10-19T21:08:56.448Z,66.84
2022-10-19T21:11:27.098Z,68.08
2022-10-19T21:13:55.980Z,66.58
2022-10-19T21:16:24.298Z,67.62
2022-10-19T21:18:50.801Z,67.32
2022-10-19T21:21:20.185Z,66.41
2022-10-19T21:23:49.309Z,68.50
2022-10-19T21:26:16.708Z,68.34
2022-10-19T21:28:47.752Z,67.37
2022-10-19T21:31:15.657Z,68.49
2022-10-19T21:33:42.276Z,68.21
2022-10-19T21:36:09.762Z,67.79
2022-10-19T21:38:36.515Z,67.60
2022-10-19T21:41:05.739Z,67.27
2022-10-19T21:43:32.966Z,67.11
2022-10-19T21:46:02.674Z,66.53
2022-10-19T21:48:29.931Z,67.18
2022-10-19T21:50:56.397Z,67.98
2022-10-19T21:53:25.945Z,69.33
2022-10-19T21:55:53.667Z,68.66
2022-10-19T21:58:22.895Z,68.45
2022-10-19T22:00:49.737Z,68.09
2022-10-19T22:03:18.863Z,68.82
2022-10-19T22:05:52.148Z,68.48
2022-10-19T22:08:18.467Z,68.80
2022-10-19T22:10:44.787Z,67.29
2022-10-19T22:13:11.111Z,69.28
2022-10-19T22:15:39.067Z,69.18
2022-10-19T22:18:05.436Z,69.08
2022-10-19T22:20:32.253Z,67.79
2022-10-19T22:22:58.590Z,69.39
2022-10-19T22:25:24.914Z,67.68
2022-10-19T22:27:51.232Z,68.13
2022-10-19T22:30:17.604Z,68.37
2022-10-19T22:32:44.017Z,69.60
2022-10-19T22:35:10.366Z,68.85
2022-10-19T22:37:36.724Z,69.82
2022-10-19T22:40:03.465Z,69.71
2022-10-19T22:42:29.768Z,69.41
2022-10-19T22:44:56.160Z,68.23
2022-10-19T22:47:22.525Z,69.47
2022-10-19T22:49:48.892Z,70.14
2022-10-19T22:52:16.574Z,68.82
2022-10-19T22:54:43.266Z,68.18
2022-10-19T22:57:10.317Z,66.63
2022-10-19T22:59:36.677Z,67.88
2022-10-19T23:02:03.623Z,67.16
2022-10-19T23:04:30.152Z,67.58
2022-10-19T23:06:56.560Z,68.67
2022-10-19T23:09:23.081Z,67.64
2022-10-19T23:11:49.423Z,67.76
2022-10-19T23:14:15.927Z,68.59
2022-10-19T23:16:42.252Z,67.48
2022-10-19T23:19:08.562Z,67.32
2022-10-19T23:21:34.939Z,67.92
2022-10-19T23:24:01.333Z,68.68
2022-10-19T23:26:27.652Z,66.99
2022-10-19T23:28:54.039Z,67.50
2022-10-19T23:31:24.614Z,68.11
2022-10-19T23:33:52.345Z,67.67
2022-10-19T23:36:27.873Z,66.43
2022-10-19T23:38:56.161Z,66.64
2022-10-19T23:41:22.710Z,66.61
2022-10-19T23:43:49.107Z,67.55
2022-10-19T23:46:15.538Z,66.47
2022-10-19T23:48:42.144Z,67.73
2022-10-19T23:51:12.262Z,66.81
2022-10-19T23:53:41.427Z,66.47
2022-10-19T23:56:14.705Z,66.61
2022-10-19T23:58:41.073Z,67.45
